Time;durP1;ratioP1;P1;durP2;ratioP2;P2;SDS_P1;SDS_P2;PMS_P1;PMS_P2;Temp;Humidity;BMP_temperature;BMP_pressure;BME280_temperature;BME280_humidity;BME280_pressure;Samples;Min_cycle;Max_cycle;Signal;HPM_P1;HPM_P2
2023/09/02 00:01:59;;;;;;;5.95;3.45;;;;;;;-145.48;100.00;64539.38;5960416;29;20096;-88
2023/09/02 00:05:02;;;;;;;3.25;2.83;;;;;;;-145.48;100.00;64539.38;5961356;29;20073;-88
2023/09/02 00:08:04;;;;;;;3.08;2.70;;;;;;;-145.48;100.00;64539.38;5978921;29;20486;-89
2023/09/02 00:11:06;;;;;;;3.60;3.08;;;;;;;-145.48;100.00;64539.38;5974922;29;20106;-88
2023/09/02 00:14:07;;;;;;;2.80;2.58;;;;;;;-145.48;100.00;64539.38;5976136;29;20060;-89
2023/09/02 00:17:10;;;;;;;3.97;2.92;;;;;;;-145.48;100.00;64539.38;5985293;29;20042;-89
2023/09/02 00:20:12;;;;;;;4.13;3.00;;;;;;;-145.48;100.00;64539.38;5979764;29;20057;-88
2023/09/02 00:23:14;;;;;;;4.78;2.70;;;;;;;-145.48;100.00;64539.38;5979061;29;20050;-88
2023/09/02 00:26:16;;;;;;;4.28;3.10;;;;;;;-145.48;100.00;64539.38;5971624;29;20057;-89
2023/09/02 00:29:21;;;;;;;3.83;2.70;;;;;;;-145.48;100.00;64539.38;5963230;29;20065;-88
2023/09/02 00:32:23;;;;;;;2.90;2.70;;;;;;;-145.48;100.00;64539.38;5980865;29;20049;-89
2023/09/02 00:35:25;;;;;;;4.80;2.72;;;;;;;-145.48;100.00;64539.38;5980103;29;20716;-89
2023/09/02 00:38:27;;;;;;;3.55;3.00;;;;;;;-145.48;100.00;64539.38;5974080;29;20054;-89
2023/09/02 00:41:34;;;;;;;3.83;2.90;;;;;;;-145.48;100.00;64539.38;5961196;29;20413;-89
2023/09/02 00:44:36;;;;;;;3.67;3.00;;;;;;;-145.48;100.00;64539.38;5973455;29;20051;-89
2023/09/02 00:47:38;;;;;;;3.95;2.78;;;;;;;-145.48;100.00;64539.38;5973585;29;20059;-89
2023/09/02 00:50:40;;;;;;;3.35;3.00;;;;;;;-145.48;100.00;64539.38;5979611;29;20046;-88
2023/09/02 00:53:45;;;;;;;4.05;3.17;;;;;;;-145.48;100.00;64539.38;5981346;29;20053;-89
2023/09/02 00:56:47;;;;;;;4.00;2.65;;;;;;;-145.48;100.00;64539.38;5976489;29;20042;-89
2023/09/02 00:59:50;;;;;;;3.40;2.63;;;;;;;-145.48;100.00;64539.38;5973462;29;20110;-89
2023/09/02 01:02:51;;;;;;;3.55;2.75;;;;;;;-145.48;100.00;64539.38;5972068;29;20062;-89
2023/09/02 01:05:54;;;;;;;4.20;2.95;;;;;;;-145.48;100.00;64539.38;5973212;29;20909;-89
2023/09/02 01:08:56;;;;;;;3.17;2.83;;;;;;;-145.48;100.00;64539.38;5974550;29;20655;-89
2023/09/02 01:11:58;;;;;;;4.00;2.75;;;;;;;-145.48;100.00;64539.38;5980364;29;20050;-89
2023/09/02 01:15:00;;;;;;;4.93;3.03;;;;;;;-145.48;100.00;64539.38;5988109;29;20405;-89
2023/09/02 01:18:01;;;;;;;4.63;3.03;;;;;;;-145.48;100.00;64539.38;5980136;29;20047;-89
2023/09/02 01:21:41;;;;;;;3.92;3.05;;;;;;;-145.48;100.00;64539.38;5975378;29;20137;-89
2023/09/02 01:25:37;;;;;;;4.38;3.10;;;;;;;-145.48;100.00;64539.38;5993680;29;20094;-88
2023/09/02 01:28:42;;;;;;;3.38;2.80;;;;;;;-145.48;100.00;64539.38;5905847;29;20200;-89
2023/09/02 01:31:46;;;;;;;4.45;3.13;;;;;;;-145.48;100.00;64539.38;5884881;30;20101;-89
2023/09/02 01:34:48;;;;;;;3.88;2.83;;;;;;;-145.48;100.00;64539.38;5884672;30;20120;-88
2023/09/02 01:37:56;;;;;;;3.42;3.08;;;;;;;-145.48;100.00;64539.38;5907522;30;20052;-89
2023/09/02 01:41:01;;;;;;;3.80;3.03;;;;;;;-145.48;100.00;64539.38;5884252;30;20420;-89
2023/09/02 01:44:04;;;;;;;3.10;2.80;;;;;;;-145.48;100.00;64539.38;5895994;30;20063;-88
2023/09/02 01:47:06;;;;;;;4.20;2.80;;;;;;;-145.48;100.00;64539.38;5910743;30;20056;-89
2023/09/02 01:50:11;;;;;;;4.07;3.03;;;;;;;-145.48;100.00;64539.38;5880113;30;20672;-89
2023/09/02 01:53:13;;;;;;;4.03;2.95;;;;;;;-145.48;100.00;64539.38;5901048;30;20064;-89
2023/09/02 01:56:15;;;;;;;3.47;2.80;;;;;;;-145.48;100.00;64539.38;5894009;30;20063;-89
2023/09/02 01:59:17;;;;;;;4.75;2.70;;;;;;;-145.48;100.00;64539.38;5895408;30;20043;-87
2023/09/02 02:02:19;;;;;;;4.32;2.90;;;;;;;-145.48;100.00;64539.38;5926897;29;20050;-88
2023/09/02 02:05:39;;;;;;;2.63;2.40;;;;;;;-145.48;100.00;64539.38;5975969;29;20053;-88
2023/09/02 02:09:04;;;;;;;3.58;2.97;;;;;;;-145.48;100.00;64539.38;5974350;29;20418;-88
2023/09/02 02:12:07;;;;;;;3.63;2.70;;;;;;;-145.48;100.00;64539.38;5968949;29;20137;-88
2023/09/02 02:15:12;;;;;;;5.30;2.60;;;;;;;-145.48;100.00;64539.38;5966776;29;20050;-88
2023/09/02 02:18:14;;;;;;;4.78;2.60;;;;;;;-145.48;100.00;64539.38;5984398;29;20176;-88
2023/09/02 02:21:16;;;;;;;3.20;2.90;;;;;;;-145.48;100.00;64539.38;5972299;29;20415;-88
2023/09/02 02:24:17;;;;;;;3.47;2.97;;;;;;;-145.48;100.00;64539.38;5984401;29;20046;-88
2023/09/02 02:27:20;;;;;;;3.13;2.83;;;;;;;-145.48;100.00;64539.38;5974519;29;20042;-88
2023/09/02 02:30:21;;;;;;;3.40;3.10;;;;;;;-145.48;100.00;64539.38;5966295;29;20047;-88
2023/09/02 02:33:23;;;;;;;3.85;3.00;;;;;;;-145.48;100.00;64539.38;5980141;29;20054;-88
2023/09/02 02:36:25;;;;;;;4.07;3.53;;;;;;;-145.48;100.00;64539.38;5980424;29;20424;-88
2023/09/02 02:39:29;;;;;;;3.40;3.10;;;;;;;-145.48;100.00;64539.38;5978181;29;20473;-88
2023/09/02 02:42:30;;;;;;;3.38;3.08;;;;;;;-145.48;100.00;64539.38;5980538;29;20149;-88
2023/09/02 02:45:32;;;;;;;3.20;2.90;;;;;;;-145.48;100.00;64539.38;5978429;29;20401;-88
2023/09/02 02:48:34;;;;;;;3.45;3.15;;;;;;;-145.48;100.00;64539.38;5978308;29;20054;-88
2023/09/02 02:51:36;;;;;;;4.47;2.90;;;;;;;-145.48;100.00;64539.38;5974377;29;20440;-88
2023/09/02 02:54:38;;;;;;;3.45;3.10;;;;;;;-145.48;100.00;64539.38;5971832;29;20062;-88
2023/09/02 02:57:40;;;;;;;3.28;2.95;;;;;;;-145.48;100.00;64539.38;5975548;29;20046;-88
2023/09/02 03:00:46;;;;;;;3.15;2.85;;;;;;;-145.48;100.00;64539.38;5966339;29;20055;-88
2023/09/02 03:03:51;;;;;;;5.15;2.63;;;;;;;-145.48;100.00;64539.38;5957362;29;20070;-88
2023/09/02 03:06:53;;;;;;;3.75;2.67;;;;;;;-145.48;100.00;64539.38;5965994;29;20061;-88
2023/09/02 03:09:54;;;;;;;2.78;2.55;;;;;;;-145.48;100.00;64539.38;5979917;29;20050;-88
2023/09/02 03:12:57;;;;;;;6.15;2.83;;;;;;;-145.48;100.00;64539.38;5977932;29;20235;-88
2023/09/02 03:15:58;;;;;;;2.90;2.60;;;;;;;-145.48;100.00;64539.38;5971859;29;20057;-88
2023/09/02 03:19:00;;;;;;;2.90;2.55;;;;;;;-145.48;100.00;64539.38;5982811;29;20062;-88
2023/09/02 03:22:04;;;;;;;4.35;3.00;;;;;;;-145.48;100.00;64539.38;5960111;29;20146;-88
2023/09/02 03:25:08;;;;;;;4.53;2.90;;;;;;;-145.48;100.00;64539.38;5958397;29;20524;-88
2023/09/02 03:28:12;;;;;;;4.22;2.95;;;;;;;-145.48;100.00;64539.38;5984310;29;20050;-88
2023/09/02 03:31:14;;;;;;;3.03;2.53;;;;;;;-145.48;100.00;64539.38;5943812;29;20537;-88
2023/09/02 03:34:17;;;;;;;3.10;2.50;;;;;;;-145.48;100.00;64539.38;5968178;29;20051;-88
2023/09/02 03:37:20;;;;;;;3.63;3.17;;;;;;;-145.48;100.00;64539.38;5983373;29;20054;-88
2023/09/02 03:40:21;;;;;;;4.95;2.70;;;;;;;-145.48;100.00;64539.38;5966382;29;20046;-88
2023/09/02 03:43:24;;;;;;;4.35;2.83;;;;;;;-145.48;100.00;64539.38;5969420;29;20054;-88
2023/09/02 03:46:27;;;;;;;2.83;2.40;;;;;;;-145.48;100.00;64539.38;5971931;29;20047;-88
2023/09/02 03:49:32;;;;;;;4.32;3.00;;;;;;;-145.48;100.00;64539.38;5953242;29;20050;-88
2023/09/02 03:52:35;;;;;;;3.97;3.17;;;;;;;-145.48;100.00;64539.38;5971761;29;20034;-88
2023/09/02 03:55:37;;;;;;;5.63;3.55;;;;;;;-145.48;100.00;64539.38;5971865;29;20058;-88
2023/09/02 03:58:39;;;;;;;3.70;3.40;;;;;;;-145.48;100.00;64539.38;5977920;29;20058;-88
2023/09/02 04:01:42;;;;;;;3.95;3.60;;;;;;;-145.48;100.00;64539.38;5972928;29;20035;-88
2023/09/02 04:04:45;;;;;;;3.97;2.78;;;;;;;-145.48;100.00;64539.38;5970392;29;20066;-88
2023/09/02 04:07:46;;;;;;;5.30;3.85;;;;;;;-145.48;100.00;64539.38;5976365;29;20050;-88
2023/09/02 04:10:55;;;;;;;3.42;3.00;;;;;;;-145.48;100.00;64539.38;5977620;29;20055;-88
2023/09/02 04:13:57;;;;;;;4.03;3.42;;;;;;;-145.48;100.00;64539.38;5974754;29;20051;-88
2023/09/02 04:17:00;;;;;;;5.28;4.20;;;;;;;-145.48;100.00;64539.38;5972666;29;20058;-88
2023/09/02 04:20:04;;;;;;;5.97;4.25;;;;;;;-145.48;100.00;64539.38;5969940;29;20043;-88
2023/09/02 04:23:07;;;;;;;5.15;4.03;;;;;;;-145.48;100.00;64539.38;5967492;29;20141;-88
2023/09/02 04:26:11;;;;;;;6.43;4.22;;;;;;;-145.48;100.00;64539.38;5985582;29;20046;-88
2023/09/02 04:29:14;;;;;;;6.70;4.53;;;;;;;-145.48;100.00;64539.38;5981949;29;20050;-88
2023/09/02 04:32:15;;;;;;;4.47;3.97;;;;;;;-145.48;100.00;64539.38;5971202;29;20053;-88
2023/09/02 04:35:17;;;;;;;5.22;4.20;;;;;;;-145.48;100.00;64539.38;5972745;29;20054;-88
2023/09/02 04:38:20;;;;;;;4.32;3.80;;;;;;;-145.48;100.00;64539.38;5962764;29;20062;-88
2023/09/02 04:41:25;;;;;;;5.60;4.60;;;;;;;-145.48;100.00;64539.38;5958691;29;20059;-88
2023/09/02 04:44:28;;;;;;;5.00;4.25;;;;;;;-145.48;100.00;64539.38;5960099;29;20399;-88
2023/09/02 04:47:30;;;;;;;5.43;4.57;;;;;;;-145.48;100.00;64539.38;5967772;29;20493;-88
2023/09/02 04:50:33;;;;;;;5.97;4.60;;;;;;;-145.48;100.00;64539.38;5978498;29;20050;-88
2023/09/02 04:53:36;;;;;;;5.97;4.72;;;;;;;-145.48;100.00;64539.38;5979241;29;20031;-88
2023/09/02 04:56:38;;;;;;;6.57;4.72;;;;;;;-145.48;100.00;64539.38;5969321;29;20058;-88
2023/09/02 04:59:40;;;;;;;5.20;4.47;;;;;;;-145.48;100.00;64539.38;5980605;29;20057;-88
2023/09/02 05:02:44;;;;;;;5.57;4.70;;;;;;;-145.48;100.00;64539.38;5983429;29;20141;-88
2023/09/02 05:05:46;;;;;;;6.35;4.68;;;;;;;-145.48;100.00;64539.38;5980661;29;20050;-88
2023/09/02 05:08:53;;;;;;;5.88;4.70;;;;;;;-145.48;100.00;64539.38;5978657;29;20065;-88
2023/09/02 05:11:56;;;;;;;6.10;4.60;;;;;;;-145.48;100.00;64539.38;5980343;29;20493;-88
2023/09/02 05:15:00;;;;;;;5.07;4.50;;;;;;;-145.48;100.00;64539.38;5971778;29;20093;-88
2023/09/02 05:18:02;;;;;;;6.53;4.53;;;;;;;-145.48;100.00;64539.38;5983270;29;20042;-88
2023/09/02 05:21:04;;;;;;;6.13;4.60;;;;;;;-145.48;100.00;64539.38;5975066;29;20051;-88
2023/09/02 05:24:06;;;;;;;5.20;4.57;;;;;;;-145.48;100.00;64539.38;5979628;29;20043;-88
2023/09/02 05:27:09;;;;;;;7.10;4.75;;;;;;;-145.48;100.00;64539.38;5978522;29;20043;-88
2023/09/02 05:30:12;;;;;;;6.50;4.97;;;;;;;-145.48;100.00;64539.38;5978603;29;20067;-88
2023/09/02 05:33:14;;;;;;;6.00;5.40;;;;;;;-145.48;100.00;64539.38;5980956;29;20054;-88
2023/09/02 05:36:17;;;;;;;6.53;5.30;;;;;;;-145.48;100.00;64539.38;5983902;29;20520;-88
2023/09/02 05:39:18;;;;;;;5.90;5.25;;;;;;;-145.48;100.00;64539.38;5980029;29;20042;-88
2023/09/02 05:42:20;;;;;;;5.97;4.43;;;;;;;-145.48;100.00;64539.38;5979461;29;20475;-88
2023/09/02 05:45:23;;;;;;;5.97;5.03;;;;;;;-145.48;100.00;64539.38;5980651;29;20054;-88
2023/09/02 05:48:25;;;;;;;6.80;5.30;;;;;;;-145.48;100.00;64539.38;5981537;29;20140;-89
2023/09/02 05:51:28;;;;;;;5.50;4.72;;;;;;;-145.48;100.00;64539.38;5982478;29;20058;-88
2023/09/02 05:54:30;;;;;;;8.18;5.22;;;;;;;-145.48;100.00;64539.38;5973213;29;20126;-88
2023/09/02 05:57:32;;;;;;;6.40;5.20;;;;;;;-145.48;100.00;64539.38;5968074;29;20050;-88
2023/09/02 06:00:36;;;;;;;9.82;5.35;;;;;;;-145.48;100.00;64539.38;5981354;29;20080;-88
2023/09/02 06:03:38;;;;;;;5.78;5.07;;;;;;;-145.48;100.00;64539.38;5980792;29;20071;-88
2023/09/02 06:06:39;;;;;;;6.15;5.53;;;;;;;-145.48;100.00;64539.38;5977603;29;20031;-88
2023/09/02 06:09:42;;;;;;;6.13;5.50;;;;;;;-145.48;100.00;64539.38;5980110;29;20047;-88
2023/09/02 06:12:44;;;;;;;6.75;5.47;;;;;;;-145.48;100.00;64539.38;5982629;29;20050;-88
2023/09/02 06:15:45;;;;;;;5.53;4.90;;;;;;;-145.48;100.00;64539.38;5976839;29;20480;-88
2023/09/02 06:18:47;;;;;;;6.80;5.35;;;;;;;-145.48;100.00;64539.38;5970654;29;20518;-88
2023/09/02 06:21:49;;;;;;;5.70;4.85;;;;;;;-145.48;100.00;64539.38;5971259;29;20073;-88
2023/09/02 06:24:54;;;;;;;6.20;5.55;;;;;;;-145.48;100.00;64539.38;5970722;29;20061;-88
2023/09/02 06:27:55;;;;;;;6.88;5.70;;;;;;;-145.48;100.00;64539.38;5982137;29;20061;-88
2023/09/02 06:30:57;;;;;;;6.07;5.13;;;;;;;-145.48;100.00;64539.38;5982266;29;20050;-88
2023/09/02 06:33:59;;;;;;;6.40;5.25;;;;;;;-145.48;100.00;64539.38;5977501;29;20517;-88
2023/09/02 06:37:01;;;;;;;6.47;5.57;;;;;;;-145.48;100.00;64539.38;5961823;29;20541;-88
2023/09/02 06:40:03;;;;;;;6.85;5.10;;;;;;;-145.48;100.00;64539.38;5969331;29;20051;-88
2023/09/02 06:43:04;;;;;;;8.07;5.07;;;;;;;-145.48;100.00;64539.38;5969906;29;20381;-88
2023/09/02 06:46:20;;;;;;;6.47;5.30;;;;;;;-145.48;100.00;64539.38;5981981;29;20074;-88
2023/09/02 06:49:22;;;;;;;7.35;5.32;;;;;;;-145.48;100.00;64539.38;5981644;29;20042;-88
2023/09/02 06:52:23;;;;;;;6.78;5.35;;;;;;;-145.48;100.00;64539.38;5981324;29;20485;-88
2023/09/02 06:55:25;;;;;;;7.60;5.65;;;;;;;-145.48;100.00;64539.38;5981533;29;20180;-88
2023/09/02 06:58:27;;;;;;;6.93;5.97;;;;;;;-145.48;100.00;64539.38;5981402;29;20053;-88
2023/09/02 07:01:29;;;;;;;6.15;5.30;;;;;;;-145.48;100.00;64539.38;5967345;29;20077;-88
2023/09/02 07:04:31;;;;;;;7.13;5.72;;;;;;;-145.48;100.00;64539.38;5969062;29;20387;-88
2023/09/02 07:07:33;;;;;;;6.70;5.25;;;;;;;-145.48;100.00;64539.38;5980436;29;20129;-88
2023/09/02 07:10:36;;;;;;;7.88;6.28;;;;;;;-145.48;100.00;64539.38;5976015;29;20043;-88
2023/09/02 07:13:39;;;;;;;7.40;6.00;;;;;;;-145.48;100.00;64539.38;5967273;29;20486;-88
2023/09/02 07:16:41;;;;;;;7.00;6.30;;;;;;;-145.48;100.00;64539.38;5977377;29;20549;-89
2023/09/02 07:19:43;;;;;;;9.63;6.13;;;;;;;-145.48;100.00;64539.38;5975543;29;20095;-88
2023/09/02 07:22:44;;;;;;;6.75;5.90;;;;;;;-145.48;100.00;64539.38;5993651;29;20074;-88
2023/09/02 07:25:46;;;;;;;7.82;6.07;;;;;;;-145.48;100.00;64539.38;5969021;29;20494;-88
2023/09/02 07:28:49;;;;;;;8.75;6.65;;;;;;;-145.48;100.00;64539.38;5960657;29;20445;-89
2023/09/02 07:31:51;;;;;;;10.95;7.90;;;;;;;-145.48;100.00;64539.38;5961919;29;20058;-88
2023/09/02 07:34:52;;;;;;;9.65;8.00;;;;;;;-145.48;100.00;64539.38;5960893;29;20390;-88
2023/09/02 07:37:54;;;;;;;12.38;7.88;;;;;;;-145.48;100.00;64539.38;5970416;29;20054;-88
2023/09/02 07:40:56;;;;;;;12.02;8.55;;;;;;;-145.48;100.00;64539.38;5966516;29;20047;-88
2023/09/02 07:43:58;;;;;;;12.90;8.93;;;;;;;-145.48;100.00;64539.38;5975015;29;20054;-88
2023/09/02 07:47:00;;;;;;;11.15;7.90;;;;;;;-145.48;100.00;64539.38;5979055;29;20456;-88
2023/09/02 07:50:03;;;;;;;10.00;7.63;;;;;;;-145.48;100.00;64539.38;5975258;29;20043;-88
2023/09/02 07:53:05;;;;;;;12.35;9.50;;;;;;;-145.48;100.00;64539.38;5972777;29;20092;-88
2023/09/02 07:56:09;;;;;;;11.18;8.90;;;;;;;-145.48;100.00;64539.38;5967074;29;20107;-88
2023/09/02 07:59:11;;;;;;;11.07;8.18;;;;;;;-145.48;100.00;64539.38;5971541;29;20328;-88
2023/09/02 08:02:12;;;;;;;9.93;8.10;;;;;;;-145.48;100.00;64539.38;5977840;29;20061;-88
2023/09/02 08:05:14;;;;;;;11.52;7.97;;;;;;;-145.48;100.00;64539.38;5972976;29;20401;-88
2023/09/02 08:08:16;;;;;;;8.65;6.88;;;;;;;-145.48;100.00;64539.38;5976583;29;20050;-88
2023/09/02 08:11:18;;;;;;;8.30;6.63;;;;;;;-145.48;100.00;64539.38;5967062;29;20125;-88
2023/09/02 08:14:20;;;;;;;7.00;5.95;;;;;;;-145.48;100.00;64539.38;5972464;29;20057;-88
2023/09/02 08:17:22;;;;;;;6.85;5.57;;;;;;;-145.48;100.00;64539.38;5975462;29;20043;-88
2023/09/02 08:20:25;;;;;;;6.50;5.03;;;;;;;-145.48;100.00;64539.38;5977973;29;20039;-93
2023/09/02 08:23:27;;;;;;;5.90;5.00;;;;;;;-145.48;100.00;64539.38;5976221;29;20039;-88
2023/09/02 08:26:29;;;;;;;7.38;5.47;;;;;;;-145.48;100.00;64539.38;5977552;29;20045;-88
2023/09/02 08:29:32;;;;;;;7.35;4.65;;;;;;;-145.48;100.00;64539.38;5974139;29;20047;-88
2023/09/02 08:32:34;;;;;;;7.38;5.00;;;;;;;-145.48;100.00;64539.38;5978589;29;20049;-88
2023/09/02 08:35:36;;;;;;;5.78;4.75;;;;;;;-145.48;100.00;64539.38;5979523;29;20106;-88
2023/09/02 08:38:38;;;;;;;6.68;5.20;;;;;;;-145.48;100.00;64539.38;5980223;29;20122;-88
2023/09/02 08:41:41;;;;;;;5.68;5.10;;;;;;;-145.48;100.00;64539.38;5972841;29;20055;-88
2023/09/02 08:44:46;;;;;;;6.88;5.45;;;;;;;-145.48;100.00;64539.38;5973392;29;20051;-88
2023/09/02 08:47:55;;;;;;;6.55;4.70;;;;;;;-145.48;100.00;64539.38;5965158;29;20070;-88
2023/09/02 08:50:58;;;;;;;5.80;4.60;;;;;;;-145.48;100.00;64539.38;5976686;29;20477;-88
2023/09/02 08:54:00;;;;;;;6.30;5.15;;;;;;;-145.48;100.00;64539.38;5969873;29;20042;-88
2023/09/02 08:57:02;;;;;;;6.30;4.88;;;;;;;-145.48;100.00;64539.38;5975412;29;20045;-88
2023/09/02 09:00:06;;;;;;;5.50;4.30;;;;;;;-145.48;100.00;64539.38;5970116;29;20510;-88
2023/09/02 09:03:13;;;;;;;6.03;5.10;;;;;;;-145.48;100.00;64539.38;5970829;29;20054;-88
2023/09/02 09:06:18;;;;;;;5.70;5.13;;;;;;;-145.48;100.00;64539.38;5979609;29;20463;-88
2023/09/02 09:09:23;;;;;;;6.10;4.75;;;;;;;-145.48;100.00;64539.38;5975523;29;20039;-88
2023/09/02 09:12:28;;;;;;;5.80;4.65;;;;;;;-145.48;100.00;64539.38;5968821;29;20768;-88
2023/09/02 09:15:32;;;;;;;5.53;4.85;;;;;;;-145.48;100.00;64539.38;5967429;29;20030;-88
2023/09/02 09:18:34;;;;;;;6.53;5.38;;;;;;;-145.48;100.00;64539.38;5964121;29;20050;-88
2023/09/02 09:21:36;;;;;;;5.53;4.93;;;;;;;-145.48;100.00;64539.38;5975530;29;20384;-88
2023/09/02 09:24:38;;;;;;;5.72;4.90;;;;;;;-145.48;100.00;64539.38;5981557;29;20059;-88
2023/09/02 09:27:39;;;;;;;5.78;5.18;;;;;;;-145.48;100.00;64539.38;5969590;29;20566;-88
2023/09/02 09:30:41;;;;;;;6.57;5.20;;;;;;;-145.48;100.00;64539.38;5967406;29;20090;-88
2023/09/02 09:34:00;;;;;;;6.57;5.22;;;;;;;-145.48;100.00;64539.38;5967564;29;20158;-88
2023/09/02 09:37:03;;;;;;;6.47;5.10;;;;;;;-145.48;100.00;64539.38;5959551;29;20407;-88
2023/09/02 09:40:06;;;;;;;6.88;5.40;;;;;;;-145.48;100.00;64539.38;5961641;29;20054;-88
2023/09/02 09:43:17;;;;;;;6.97;5.07;;;;;;;-145.48;100.00;64539.38;5972184;29;20054;-88
2023/09/02 09:46:20;;;;;;;7.10;5.25;;;;;;;-145.48;100.00;64539.38;5959180;29;20047;-88
2023/09/02 09:49:27;;;;;;;6.32;5.53;;;;;;;-145.48;100.00;64539.38;5965184;29;20038;-88
2023/09/02 09:52:29;;;;;;;6.93;5.13;;;;;;;-145.48;100.00;64539.38;5981722;29;20050;-88
2023/09/02 09:55:31;;;;;;;4.82;4.30;;;;;;;-145.48;100.00;64539.38;5969188;29;20542;-88
2023/09/02 09:58:33;;;;;;;5.55;4.10;;;;;;;-145.48;100.00;64539.38;5965995;29;20059;-88
2023/09/02 10:01:39;;;;;;;4.07;3.38;;;;;;;-145.48;100.00;64539.38;5965936;29;20043;-88
2023/09/02 10:05:05;;;;;;;4.55;3.70;;;;;;;-145.48;100.00;64539.38;5976721;29;20092;-88
2023/09/02 10:08:08;;;;;;;3.60;3.30;;;;;;;-145.48;100.00;64539.38;5961430;29;20054;-88
2023/09/02 10:11:21;;;;;;;4.32;3.80;;;;;;;-145.48;100.00;64539.38;5961738;29;20165;-88
2023/09/02 10:14:23;;;;;;;4.10;3.70;;;;;;;-145.48;100.00;64539.38;5971180;29;20665;-88
2023/09/02 10:17:26;;;;;;;3.67;3.38;;;;;;;-145.48;100.00;64539.38;5963937;29;20038;-88
2023/09/02 10:20:32;;;;;;;3.53;2.92;;;;;;;-145.48;100.00;64539.38;5968559;29;20078;-88
2023/09/02 10:23:36;;;;;;;3.63;2.70;;;;;;;-145.48;100.00;64539.38;5977727;29;20048;-87
2023/09/02 10:26:52;;;;;;;4.18;3.33;;;;;;;-145.48;100.00;64539.38;5979581;29;20125;-88
2023/09/02 10:29:58;;;;;;;5.00;3.60;;;;;;;-145.48;100.00;64539.38;5973147;29;20054;-88
2023/09/02 10:33:27;;;;;;;5.68;3.95;;;;;;;-145.48;100.00;64539.38;5975739;29;20038;-88
2023/09/02 10:36:32;;;;;;;3.88;3.45;;;;;;;-145.48;100.00;64539.38;5977333;29;20097;-88
2023/09/02 10:40:16;;;;;;;3.30;3.00;;;;;;;-145.48;100.00;64539.38;5976817;29;20121;-88
2023/09/02 10:43:18;;;;;;;3.25;2.95;;;;;;;-145.48;100.00;64539.38;5928908;29;20062;-87
2023/09/02 10:46:21;;;;;;;2.90;2.63;;;;;;;-145.48;100.00;64539.38;5923145;29;20058;-88
2023/09/02 10:49:23;;;;;;;3.92;3.53;;;;;;;-145.48;100.00;64539.38;5930309;29;20603;-87
2023/09/02 10:52:25;;;;;;;5.55;3.60;;;;;;;-145.48;100.00;64539.38;5916028;30;20200;-87
2023/09/02 10:55:31;;;;;;;3.38;2.97;;;;;;;-145.48;100.00;64539.38;5916965;30;20055;-88
2023/09/02 10:58:46;;;;;;;3.88;3.10;;;;;;;-145.48;100.00;64539.38;5929367;30;20051;-87
2023/09/02 11:01:49;;;;;;;4.18;3.22;;;;;;;-145.48;100.00;64539.38;5931139;30;20112;-88
2023/09/02 11:04:59;;;;;;;5.43;3.13;;;;;;;-145.48;100.00;64539.38;5923131;29;20043;-88
2023/09/02 11:08:40;;;;;;;4.05;2.88;;;;;;;-145.48;100.00;64539.38;5912648;29;20048;-87
2023/09/02 11:12:10;;;;;;;2.85;2.55;;;;;;;-145.48;100.00;64539.38;5928644;29;20474;-87
2023/09/02 11:15:12;;;;;;;3.03;2.58;;;;;;;-145.48;100.00;64539.38;5973215;29;20437;-87
2023/09/02 11:18:29;;;;;;;3.22;2.50;;;;;;;-145.48;100.00;64539.38;5959321;29;20130;-88
2023/09/02 11:21:46;;;;;;;3.70;2.80;;;;;;;-145.48;100.00;64539.38;5962159;29;20042;-88
2023/09/02 11:24:48;;;;;;;3.42;2.25;;;;;;;-145.48;100.00;64539.38;5979041;29;20046;-87
2023/09/02 11:27:50;;;;;;;2.60;2.38;;;;;;;-145.48;100.00;64539.38;5976227;29;20038;-87
2023/09/02 11:31:04;;;;;;;3.05;2.55;;;;;;;-145.48;100.00;64539.38;5972738;29;20054;-87
2023/09/02 11:34:06;;;;;;;3.78;2.60;;;;;;;-145.48;100.00;64539.38;5984315;29;20056;-88
2023/09/02 11:37:10;;;;;;;5.18;2.65;;;;;;;-145.48;100.00;64539.38;5975898;29;20065;-88
2023/09/02 11:40:17;;;;;;;2.90;2.10;;;;;;;-145.48;100.00;64539.38;5978897;29;20570;-88
2023/09/02 11:43:19;;;;;;;2.60;2.40;;;;;;;-145.48;100.00;64539.38;5965958;29;20065;-88
2023/09/02 11:46:22;;;;;;;2.35;2.15;;;;;;;-145.48;100.00;64539.38;5973500;29;20057;-88
2023/09/02 11:49:24;;;;;;;3.20;2.20;;;;;;;-145.48;100.00;64539.38;5967448;29;20098;-88
2023/09/02 11:52:26;;;;;;;2.47;2.10;;;;;;;-145.48;100.00;64539.38;5972088;29;20139;-88
2023/09/02 11:55:28;;;;;;;2.42;2.10;;;;;;;-145.48;100.00;64539.38;5970709;29;20046;-88
2023/09/02 11:58:30;;;;;;;2.30;2.00;;;;;;;-145.48;100.00;64539.38;5976890;29;20425;-88
2023/09/02 12:01:32;;;;;;;3.55;2.40;;;;;;;-145.48;100.00;64539.38;5979281;29;20345;-88
2023/09/02 12:04:35;;;;;;;4.35;2.58;;;;;;;-145.48;100.00;64539.38;5971210;29;20058;-89
2023/09/02 12:07:39;;;;;;;2.72;2.42;;;;;;;-145.48;100.00;64539.38;5970117;29;20050;-88
2023/09/02 12:10:41;;;;;;;1.90;1.77;;;;;;;-145.48;100.00;64539.38;5981632;29;20658;-88
2023/09/02 12:13:45;;;;;;;2.65;2.40;;;;;;;-145.48;100.00;64539.38;5981871;29;20440;-88
2023/09/02 12:16:47;;;;;;;2.40;2.20;;;;;;;-145.48;100.00;64539.38;5980469;29;20046;-88
2023/09/02 12:19:49;;;;;;;2.50;2.13;;;;;;;-145.48;100.00;64539.38;5974179;29;20074;-88
2023/09/02 12:22:51;;;;;;;2.35;1.90;;;;;;;-145.48;100.00;64539.38;5974569;29;20106;-88
2023/09/02 12:26:07;;;;;;;2.20;2.00;;;;;;;-145.48;100.00;64539.38;5966298;29;20722;-88
2023/09/02 12:29:17;;;;;;;2.30;2.10;;;;;;;-145.48;100.00;64539.38;5980925;29;20580;-88
2023/09/02 12:32:21;;;;;;;2.60;2.40;;;;;;;-145.48;100.00;64539.38;5980641;29;20050;-88
2023/09/02 12:35:23;;;;;;;2.67;2.47;;;;;;;-145.48;100.00;64539.38;5982164;29;20505;-88
2023/09/02 12:38:25;;;;;;;3.95;2.80;;;;;;;-145.48;100.00;64539.38;5980680;29;20057;-87
2023/09/02 12:41:42;;;;;;;3.00;2.63;;;;;;;-145.48;100.00;64539.38;5971993;29;20053;-88
2023/09/02 12:44:52;;;;;;;3.83;3.30;;;;;;;-145.48;100.00;64539.38;5970015;29;20077;-88
2023/09/02 12:47:56;;;;;;;4.75;2.70;;;;;;;-145.48;100.00;64539.38;5963982;29;20753;-88
2023/09/02 12:50:58;;;;;;;3.65;2.70;;;;;;;-145.48;100.00;64539.38;5966368;29;20046;-87
2023/09/02 12:54:08;;;;;;;4.10;3.10;;;;;;;-145.48;100.00;64539.38;5971897;29;20099;-88
2023/09/02 12:57:09;;;;;;;3.45;3.13;;;;;;;-145.48;100.00;64539.38;5978769;29;20066;-88
2023/09/02 13:00:12;;;;;;;3.10;2.60;;;;;;;-145.48;100.00;64539.38;5975555;29;20046;-88
2023/09/02 13:03:13;;;;;;;3.80;3.10;;;;;;;-145.48;100.00;64539.38;5972733;29;20523;-87
2023/09/02 13:06:15;;;;;;;3.70;3.35;;;;;;;-145.48;100.00;64539.38;5971829;29;20042;-87
2023/09/02 13:09:17;;;;;;;4.30;3.50;;;;;;;-145.48;100.00;64539.38;5986331;29;20051;-88
2023/09/02 13:12:20;;;;;;;3.83;2.90;;;;;;;-145.48;100.00;64539.38;5982673;29;20050;-87
2023/09/02 13:15:25;;;;;;;3.10;2.80;;;;;;;-145.48;100.00;64539.38;5976987;29;20090;-87
2023/09/02 13:18:26;;;;;;;4.45;3.83;;;;;;;-145.48;100.00;64539.38;5970492;29;20081;-88
2023/09/02 13:21:29;;;;;;;3.75;3.38;;;;;;;-145.48;100.00;64539.38;5961550;29;20050;-88
2023/09/02 13:24:31;;;;;;;4.10;3.70;;;;;;;-145.48;100.00;64539.38;5983405;29;20450;-88
2023/09/02 13:27:33;;;;;;;4.25;3.85;;;;;;;-145.48;100.00;64539.38;5986267;29;20067;-88
2023/09/02 13:30:34;;;;;;;5.50;3.85;;;;;;;-145.48;100.00;64539.38;5969381;29;20043;-87
2023/09/02 13:33:41;;;;;;;4.07;3.67;;;;;;;-145.48;100.00;64539.38;5964800;29;20050;-88
2023/09/02 13:36:43;;;;;;;4.20;3.80;;;;;;;-145.48;100.00;64539.38;5972727;29;20039;-88
2023/09/02 13:39:46;;;;;;;4.78;4.28;;;;;;;-145.48;100.00;64539.38;5967453;29;20082;-88
2023/09/02 13:42:48;;;;;;;4.00;3.60;;;;;;;-145.48;100.00;64539.38;5963438;29;20043;-88
2023/09/02 13:45:51;;;;;;;3.30;3.00;;;;;;;-145.48;100.00;64539.38;5966283;29;20516;-88
2023/09/02 13:48:54;;;;;;;3.97;3.58;;;;;;;-145.48;100.00;64539.38;5981912;29;20034;-88
2023/09/02 13:51:55;;;;;;;3.42;3.13;;;;;;;-145.48;100.00;64539.38;5966743;29;20118;-88
2023/09/02 13:54:58;;;;;;;2.83;2.63;;;;;;;-145.48;100.00;64539.38;5975532;29;20685;-88
2023/09/02 13:58:00;;;;;;;3.55;3.05;;;;;;;-145.48;100.00;64539.38;5966017;29;20125;-88